Little America, Illinois
Current Conditions -  °F | °C
As of 11:35 PM on Wednesday 22 Oct 2014 (Local Time) from KMQB Reporting Station
Clear Clear  
Wind Chill: 38°   Ceiling: Unl
Heat Index: 42°   Visibility: 10mi
Dew Point: 37°   Wind: 7mph
Humidity: 81%   Direction: 150°SSE
Pressure: 30.24"   Gusts: NA
Location:  40.3324°N, 90.1539°W
Report Text: KMQB 230435Z AUTO 15006KT 10SM CLR 06/03 A3024 RMK AO2 T00580028
Loading
Personal Weather Stations






























Interactive Weather Map
Tropical Storm Tracking
New forecast layout! Learn more

10-Day Weather Forecast

Advertisements
Track Severe Weather on mobile